Time;durP1;ratioP1;P1;durP2;ratioP2;P2;SDS_P1;SDS_P2;PMS_P1;PMS_P2;Temp;Humidity;BMP_temperature;BMP_pressure;BME280_temperature;BME280_humidity;BME280_pressure;Samples;Min_cycle;Max_cycle;Signal;HPM_P1;HPM_P2
2022/05/28 00:01:46;;;;;;;4.13;1.45;;;;;;;16.36;74.12;96037.06;5114123;28;20011;-61
2022/05/28 00:04:13;;;;;;;1.40;1.38;;;;;;;16.34;73.97;96042.53;5113861;28;20031;-61
2022/05/28 00:06:38;;;;;;;1.50;1.40;;;;;;;16.26;74.32;96034.59;5113797;28;20020;-61
2022/05/28 00:09:04;;;;;;;1.52;1.42;;;;;;;16.23;74.67;96041.06;5113394;28;20039;-61
2022/05/28 00:11:36;;;;;;;2.70;1.60;;;;;;;16.23;74.48;96034.94;5113740;28;20115;-61
2022/05/28 00:14:02;;;;;;;1.60;1.50;;;;;;;16.19;74.56;96031.78;5113537;28;20099;-62
2022/05/28 00:16:27;;;;;;;1.50;1.40;;;;;;;16.15;74.58;96033.13;5113620;28;20447;-61
2022/05/28 00:18:53;;;;;;;3.55;1.50;;;;;;;16.11;75.23;96026.50;5113346;28;20028;-61
2022/05/28 00:21:20;;;;;;;1.60;1.50;;;;;;;16.08;74.76;96032.97;5113775;28;20030;-61
2022/05/28 00:23:46;;;;;;;3.03;1.63;;;;;;;16.11;74.52;96032.63;5113438;28;20071;-61
2022/05/28 00:26:12;;;;;;;1.30;1.30;;;;;;;16.03;73.98;96027.34;5113315;28;20027;-61
2022/05/28 00:28:38;;;;;;;2.33;1.48;;;;;;;16.16;73.26;96021.50;5113372;28;20026;-61
2022/05/28 00:31:03;;;;;;;6.63;1.35;;;;;;;16.11;73.65;96024.66;5113056;28;20432;-61
2022/05/28 00:33:30;;;;;;;1.52;1.35;;;;;;;16.13;73.36;96013.88;5113167;28;20094;-61
2022/05/28 00:35:56;;;;;;;1.60;1.50;;;;;;;16.18;72.61;96019.50;5112898;28;20468;-61
2022/05/28 00:38:24;;;;;;;1.33;1.33;;;;;;;16.15;72.31;96017.19;5113442;28;20059;-61
2022/05/28 00:40:52;;;;;;;1.58;1.42;;;;;;;16.04;72.49;96016.56;5112474;28;20034;-61
2022/05/28 00:43:17;;;;;;;8.27;1.55;;;;;;;16.01;72.02;96008.09;5113188;28;20019;-61
2022/05/28 00:45:45;;;;;;;1.50;1.38;;;;;;;16.04;71.77;96016.56;5112664;28;20026;-61
2022/05/28 00:48:16;;;;;;;2.90;1.60;;;;;;;16.04;72.04;96010.41;5095194;28;20103;-61
2022/05/28 00:50:42;;;;;;;1.23;1.23;;;;;;;16.04;71.56;96007.75;5098468;28;20115;-61
2022/05/28 00:53:08;;;;;;;4.13;1.50;;;;;;;16.00;71.45;96003.78;5112771;28;20462;-61
2022/05/28 00:55:35;;;;;;;2.08;1.60;;;;;;;15.97;72.19;96004.13;5112732;28;20041;-61
2022/05/28 00:58:05;;;;;;;2.28;1.40;;;;;;;15.96;71.89;96003.28;5112540;28;20402;-61
2022/05/28 01:00:30;;;;;;;1.75;1.60;;;;;;;15.91;72.27;96002.94;5112692;28;20023;-61
2022/05/28 01:03:02;;;;;;;7.38;1.52;;;;;;;15.84;72.62;96007.25;5112449;28;20099;-61
2022/05/28 01:05:45;;;;;;;2.08;1.40;;;;;;;15.82;72.36;95995.97;5112682;28;20440;-62
2022/05/28 01:08:33;;;;;;;1.50;1.40;;;;;;;15.68;72.11;96000.94;5112441;28;20027;-61
2022/05/28 01:11:27;;;;;;;1.63;1.30;;;;;;;15.65;71.78;95995.97;5112438;28;20028;-61
2022/05/28 01:14:24;;;;;;;1.33;1.23;;;;;;;15.71;70.43;95987.34;5098504;28;20055;-62
2022/05/28 01:17:06;;;;;;;2.45;1.50;;;;;;;15.81;70.32;95979.19;5112158;28;20027;-63
2022/05/28 01:19:46;;;;;;;1.25;1.25;;;;;;;15.79;70.05;95978.53;5112331;28;20027;-63
2022/05/28 01:22:12;;;;;;;1.60;1.40;;;;;;;15.78;70.20;95976.88;5096445;28;20485;-63
2022/05/28 01:24:43;;;;;;;1.88;1.50;;;;;;;15.71;70.77;95974.06;5091795;28;20115;-63
2022/05/28 01:27:18;;;;;;;1.70;1.60;;;;;;;15.66;70.73;95962.28;5091611;28;20556;-62
2022/05/28 01:29:50;;;;;;;1.63;1.52;;;;;;;15.67;70.57;95971.91;5091704;28;20028;-62
2022/05/28 01:32:18;;;;;;;1.50;1.40;;;;;;;15.57;70.37;95972.06;5091675;28;20036;-62
2022/05/28 01:34:43;;;;;;;1.23;1.20;;;;;;;15.58;70.09;95969.28;5091344;28;20030;-62
2022/05/28 01:37:10;;;;;;;1.50;1.50;;;;;;;15.55;70.61;95961.66;5091488;28;20115;-63
2022/05/28 01:39:38;;;;;;;1.40;1.30;;;;;;;15.51;70.86;95956.81;5091673;28;20032;-62
2022/05/28 01:42:06;;;;;;;3.45;1.40;;;;;;;15.43;70.97;95950.53;5091448;28;20032;-62
2022/05/28 01:44:33;;;;;;;1.17;1.17;;;;;;;15.53;70.09;95941.56;5091263;28;20055;-62
2022/05/28 01:46:59;;;;;;;1.45;1.35;;;;;;;15.43;70.37;95931.13;5091408;28;20061;-62
2022/05/28 01:49:26;;;;;;;1.80;1.70;;;;;;;15.39;70.86;95927.16;5091626;28;20035;-62
2022/05/28 01:51:56;;;;;;;1.75;1.65;;;;;;;15.34;70.94;95938.25;5106894;28;20047;-62
2022/05/28 01:54:27;;;;;;;2.03;1.35;;;;;;;15.32;71.11;95927.81;5111714;28;20034;-62
2022/05/28 01:56:54;;;;;;;3.03;1.67;;;;;;;15.34;71.17;95927.63;5111448;28;20497;-62
2022/05/28 01:59:33;;;;;;;6.38;1.60;;;;;;;15.25;71.38;95929.50;5111581;28;20023;-62
2022/05/28 02:02:00;;;;;;;2.97;1.33;;;;;;;15.24;70.92;95919.84;5111727;28;20027;-62
2022/05/28 02:04:26;;;;;;;1.80;1.70;;;;;;;15.13;71.99;95928.16;5111703;28;20036;-62
2022/05/28 02:06:52;;;;;;;2.10;1.50;;;;;;;15.10;71.69;95909.91;5111344;28;20547;-62
2022/05/28 02:09:23;;;;;;;1.55;1.45;;;;;;;15.10;71.83;95912.56;5111330;28;20032;-62
2022/05/28 02:12:17;;;;;;;3.30;1.50;;;;;;;15.13;71.39;95915.69;5111127;28;20030;-62
2022/05/28 02:15:10;;;;;;;1.65;1.50;;;;;;;15.09;71.56;95906.44;5111225;28;20026;-62
2022/05/28 02:17:50;;;;;;;2.58;2.38;;;;;;;15.04;72.06;95903.44;5111035;28;20067;-62
2022/05/28 02:20:15;;;;;;;1.33;1.33;;;;;;;15.00;72.26;95904.78;5111219;28;20044;-63
2022/05/28 02:23:02;;;;;;;5.05;1.33;;;;;;;15.01;71.85;95893.19;5111160;28;20031;-62
2022/05/28 02:25:39;;;;;;;1.52;1.42;;;;;;;14.98;71.75;95893.50;5111400;28;20398;-62
2022/05/28 02:28:07;;;;;;;2.63;1.52;;;;;;;15.01;71.88;95895.81;5102665;28;20066;-62
2022/05/28 02:30:35;;;;;;;1.50;1.40;;;;;;;14.97;71.52;95886.56;5110367;28;20015;-62
2022/05/28 02:33:03;;;;;;;1.88;1.70;;;;;;;14.94;71.89;95889.53;5092712;28;20031;-61
2022/05/28 02:35:28;;;;;;;2.10;1.48;;;;;;;14.90;71.79;95892.47;5110842;28;20024;-63
2022/05/28 02:37:54;;;;;;;1.50;1.40;;;;;;;14.84;72.42;95887.03;5090840;28;20023;-63
2022/05/28 02:40:19;;;;;;;1.58;1.48;;;;;;;14.81;72.72;95877.59;5110692;28;20094;-63
2022/05/28 02:42:45;;;;;;;1.63;1.40;;;;;;;14.77;73.09;95876.25;5110391;28;20020;-63
2022/05/28 02:45:10;;;;;;;1.60;1.48;;;;;;;14.76;72.63;95882.56;5108983;28;20024;-63
2022/05/28 02:47:35;;;;;;;1.20;1.20;;;;;;;14.80;72.51;95877.72;5110412;28;20034;-63
2022/05/28 02:50:01;;;;;;;1.60;1.50;;;;;;;14.68;73.28;95880.69;5110475;28;20099;-63
2022/05/28 02:52:26;;;;;;;3.22;1.40;;;;;;;14.65;73.27;95880.16;5110639;28;20055;-64
2022/05/28 02:54:52;;;;;;;1.63;1.50;;;;;;;14.61;73.47;95872.56;5110064;28;20126;-63
2022/05/28 02:57:17;;;;;;;8.27;1.67;;;;;;;14.60;73.43;95870.06;5110267;28;20031;-63
2022/05/28 02:59:43;;;;;;;1.67;1.45;;;;;;;14.53;73.81;95875.19;5109984;28;20024;-63
2022/05/28 03:02:08;;;;;;;1.77;1.42;;;;;;;14.53;73.88;95874.34;5109036;28;20047;-63
2022/05/28 03:04:34;;;;;;;1.95;1.67;;;;;;;14.52;74.01;95868.25;5110120;28;20019;-63
2022/05/28 03:06:59;;;;;;;1.58;1.48;;;;;;;14.48;74.14;95872.22;5110006;28;20090;-63
2022/05/28 03:09:24;;;;;;;1.65;1.35;;;;;;;14.48;73.92;95866.91;5110179;28;20019;-63
2022/05/28 03:11:50;;;;;;;1.50;1.30;;;;;;;14.52;73.78;95870.03;5110002;28;20024;-63
2022/05/28 03:14:17;;;;;;;1.85;1.65;;;;;;;14.52;74.02;95868.25;5110092;28;20019;-63
2022/05/28 03:16:43;;;;;;;1.33;1.23;;;;;;;14.49;74.30;95865.06;5107334;28;20035;-63
2022/05/28 03:19:09;;;;;;;1.35;1.35;;;;;;;14.46;74.42;95863.56;5089509;28;20061;-63
2022/05/28 03:21:34;;;;;;;1.63;1.52;;;;;;;14.42;74.80;95856.94;5089846;28;20024;-62
2022/05/28 03:24:00;;;;;;;1.83;1.48;;;;;;;14.38;75.01;95859.09;5089247;28;20020;-63
2022/05/28 03:26:27;;;;;;;4.00;1.60;;;;;;;14.33;75.37;95864.03;5089661;28;20028;-63
2022/05/28 03:28:56;;;;;;;1.60;1.50;;;;;;;14.30;75.43;95859.91;5089284;28;20595;-62
2022/05/28 03:31:23;;;;;;;1.67;1.38;;;;;;;14.29;75.64;95855.59;5089536;28;20024;-63
2022/05/28 03:33:50;;;;;;;1.75;1.65;;;;;;;14.24;76.14;95847.28;5089311;28;20064;-63
2022/05/28 03:36:16;;;;;;;1.70;1.60;;;;;;;14.22;76.72;95856.41;5093762;28;20038;-63
2022/05/28 03:38:42;;;;;;;1.58;1.48;;;;;;;14.19;76.65;95860.19;5107280;28;20412;-63
2022/05/28 03:41:08;;;;;;;2.17;1.75;;;;;;;14.22;76.00;95862.50;5096837;28;20031;-63
2022/05/28 03:43:33;;;;;;;1.73;1.60;;;;;;;14.30;75.58;95859.06;5109856;28;20028;-62
2022/05/28 03:45:59;;;;;;;1.80;1.60;;;;;;;14.33;75.47;95859.56;5096267;28;20406;-62
2022/05/28 03:48:25;;;;;;;1.50;1.50;;;;;;;14.35;75.59;95858.59;5104299;28;20714;-63
2022/05/28 03:50:50;;;;;;;1.70;1.60;;;;;;;14.45;75.20;95856.63;5109765;28;20066;-62
2022/05/28 03:53:16;;;;;;;1.52;1.42;;;;;;;14.37;75.82;95859.25;5109671;28;20048;-62
2022/05/28 03:55:42;;;;;;;3.72;2.05;;;;;;;14.27;76.40;95856.75;5109563;28;20053;-62
2022/05/28 03:58:08;;;;;;;3.45;1.58;;;;;;;14.19;76.69;95860.19;5109815;28;20027;-62
2022/05/28 04:00:35;;;;;;;1.67;1.58;;;;;;;14.08;77.27;95849.91;5109795;28;20024;-62
2022/05/28 04:03:00;;;;;;;1.77;1.63;;;;;;;14.04;77.37;95854.69;5108713;28;20245;-62
2022/05/28 04:05:26;;;;;;;1.67;1.58;;;;;;;13.99;78.06;95857.78;5109568;28;20020;-62
2022/05/28 04:07:52;;;;;;;1.80;1.70;;;;;;;13.91;79.32;95857.78;5109528;28;20024;-62
2022/05/28 04:10:17;;;;;;;2.10;2.00;;;;;;;13.78;79.96;95855.56;5109485;28;20027;-61
2022/05/28 04:12:43;;;;;;;1.75;1.65;;;;;;;13.77;79.49;95863.66;5109480;28;20030;-62
2022/05/28 04:15:10;;;;;;;1.98;1.70;;;;;;;13.77;79.39;95861.00;5109528;28;20023;-62
2022/05/28 04:17:37;;;;;;;2.20;2.00;;;;;;;13.75;78.98;95859.34;5113152;28;20044;-62
2022/05/28 04:20:04;;;;;;;1.67;1.60;;;;;;;13.70;79.53;95859.00;5112949;28;20490;-62
2022/05/28 04:22:29;;;;;;;1.88;1.60;;;;;;;13.67;79.91;95866.41;5113207;28;20486;-62
2022/05/28 04:24:55;;;;;;;1.95;1.85;;;;;;;13.58;80.37;95866.38;5112940;28;20111;-62
2022/05/28 04:27:20;;;;;;;2.40;2.03;;;;;;;13.56;81.08;95860.41;5112934;28;20077;-62
2022/05/28 04:29:46;;;;;;;1.88;1.55;;;;;;;13.53;81.10;95859.88;5113020;28;20027;-63
2022/05/28 04:32:11;;;;;;;3.40;1.80;;;;;;;13.51;81.90;95861.84;5113069;28;20110;-62
2022/05/28 04:34:36;;;;;;;3.90;1.70;;;;;;;13.54;81.52;95858.91;5112854;28;20035;-62
2022/05/28 04:37:02;;;;;;;1.60;1.50;;;;;;;13.64;81.07;95856.13;5111430;28;20059;-62
2022/05/28 04:39:28;;;;;;;1.70;1.60;;;;;;;13.70;80.44;95860.78;5094180;28;20023;-62
2022/05/28 04:41:53;;;;;;;1.85;1.63;;;;;;;13.78;79.72;95860.00;5112636;28;20051;-62
2022/05/28 04:44:18;;;;;;;1.67;1.63;;;;;;;13.75;79.73;95856.69;5112654;28;20035;-62
2022/05/28 04:46:44;;;;;;;1.60;1.60;;;;;;;13.83;79.02;95858.56;5113008;28;20019;-62
2022/05/28 04:49:09;;;;;;;1.73;1.50;;;;;;;13.89;79.01;95857.91;5112730;28;20142;-62
2022/05/28 04:51:34;;;;;;;1.80;1.70;;;;;;;13.93;78.61;95861.09;5094303;28;20168;-63
2022/05/28 04:54:00;;;;;;;1.60;1.50;;;;;;;13.91;79.09;95857.78;5112592;28;20020;-62
2022/05/28 04:56:25;;;;;;;5.13;1.70;;;;;;;13.87;79.25;95864.38;5112130;28;20669;-62
2022/05/28 04:58:51;;;;;;;2.58;1.50;;;;;;;13.95;78.69;95861.75;5112463;28;20064;-62
2022/05/28 05:01:19;;;;;;;4.95;1.60;;;;;;;13.99;78.13;95856.97;5112119;28;20030;-62
2022/05/28 05:03:45;;;;;;;2.00;1.52;;;;;;;14.02;77.96;95862.75;5112707;28;20028;-62
2022/05/28 05:06:11;;;;;;;1.63;1.42;;;;;;;14.06;77.91;95854.53;5112344;28;20038;-63
2022/05/28 05:08:36;;;;;;;1.92;1.52;;;;;;;14.07;78.03;95858.84;5112236;28;20114;-62
2022/05/28 05:11:01;;;;;;;1.80;1.70;;;;;;;14.08;78.12;95863.94;5111985;28;20360;-62
2022/05/28 05:13:27;;;;;;;3.03;1.52;;;;;;;14.02;78.69;95857.47;5112155;28;20023;-62
2022/05/28 05:15:52;;;;;;;1.55;1.25;;;;;;;14.04;78.52;95854.69;5112239;28;20040;-62
2022/05/28 05:18:18;;;;;;;1.70;1.67;;;;;;;14.00;78.45;95861.28;5111738;28;20035;-62
2022/05/28 05:20:43;;;;;;;4.15;2.00;;;;;;;14.05;78.39;95861.63;5112330;28;20023;-63
2022/05/28 05:23:08;;;;;;;1.42;1.33;;;;;;;14.10;78.54;95861.16;5112027;28;20023;-62
2022/05/28 05:25:34;;;;;;;1.88;1.60;;;;;;;14.20;77.88;95861.84;5111589;28;20016;-62
2022/05/28 05:28:00;;;;;;;1.45;1.38;;;;;;;14.36;76.99;95861.06;5111601;28;20027;-63
2022/05/28 05:30:26;;;;;;;1.23;1.23;;;;;;;14.36;77.21;95862.88;5111674;28;20035;-62
2022/05/28 05:32:51;;;;;;;1.75;1.65;;;;;;;14.38;76.79;95864.41;5111769;28;20046;-63
2022/05/28 05:35:17;;;;;;;1.55;1.45;;;;;;;14.39;76.67;95859.91;5111882;28;20019;-62
2022/05/28 05:37:42;;;;;;;1.60;1.50;;;;;;;14.57;75.68;95859.78;5110083;28;20045;-62
2022/05/28 05:40:10;;;;;;;1.50;1.42;;;;;;;14.52;75.84;95868.25;5111713;28;20795;-62
2022/05/28 05:42:35;;;;;;;1.08;1.08;;;;;;;14.55;75.76;95864.41;5111623;28;20020;-62
2022/05/28 05:45:01;;;;;;;2.20;1.60;;;;;;;14.51;75.33;95861.28;5111563;28;20022;-62
2022/05/28 05:47:26;;;;;;;6.07;1.50;;;;;;;14.55;75.50;95851.16;5111317;28;20019;-63
2022/05/28 05:49:51;;;;;;;3.25;1.50;;;;;;;14.59;75.52;95863.13;5111358;28;20023;-63
2022/05/28 05:52:17;;;;;;;2.00;1.52;;;;;;;14.67;75.41;95856.97;5111616;28;20112;-63
2022/05/28 05:54:42;;;;;;;1.52;1.42;;;;;;;14.71;75.56;95855.72;5111065;28;20047;-63
2022/05/28 05:57:08;;;;;;;1.70;1.55;;;;;;;14.83;74.73;95853.56;5111110;28;20034;-63
2022/05/28 05:59:34;;;;;;;1.42;1.33;;;;;;;14.99;74.16;95847.44;5104140;28;20111;-62
2022/05/28 06:01:59;;;;;;;1.50;1.40;;;;;;;15.03;74.39;95846.13;5099268;28;20041;-62
2022/05/28 06:04:24;;;;;;;1.50;1.40;;;;;;;15.13;74.34;95844.09;5103037;28;20028;-63
2022/05/28 06:06:50;;;;;;;1.80;1.70;;;;;;;15.20;74.00;95838.16;5091103;28;20018;-62
2022/05/28 06:09:15;;;;;;;1.52;1.42;;;;;;;15.27;73.94;95844.44;5090596;28;20024;-63
2022/05/28 06:11:41;;;;;;;1.42;1.38;;;;;;;15.19;74.37;95839.97;5090595;28;20394;-63
2022/05/28 06:14:06;;;;;;;2.47;1.38;;;;;;;15.20;74.84;95830.19;5090699;28;20016;-62
2022/05/28 06:16:32;;;;;;;1.40;1.40;;;;;;;15.23;74.21;95830.69;5090399;28;20023;-63
2022/05/28 06:18:57;;;;;;;1.45;1.45;;;;;;;15.31;73.97;95840.44;5090238;28;20069;-63
2022/05/28 06:21:25;;;;;;;1.77;1.52;;;;;;;15.38;73.93;95828.19;5090411;28;20031;-63
2022/05/28 06:23:50;;;;;;;1.42;1.40;;;;;;;15.33;74.46;95827.84;5090325;28;20016;-63
2022/05/28 06:26:15;;;;;;;1.20;1.20;;;;;;;15.44;73.56;95822.19;5090427;28;20031;-63
2022/05/28 06:28:41;;;;;;;1.58;1.48;;;;;;;15.64;72.93;95824.47;5090191;28;20020;-63
2022/05/28 06:31:09;;;;;;;1.63;1.52;;;;;;;15.68;72.83;95820.47;5090148;28;20012;-63
2022/05/28 06:33:36;;;;;;;1.45;1.38;;;;;;;15.68;72.59;95812.50;5090065;28;20020;-63
2022/05/28 06:36:03;;;;;;;1.52;1.40;;;;;;;15.62;73.21;95818.50;5092998;28;20080;-63
2022/05/28 06:38:29;;;;;;;2.78;1.88;;;;;;;15.63;73.16;95817.50;5091413;28;20031;-63
2022/05/28 06:40:55;;;;;;;1.60;1.50;;;;;;;15.67;72.88;95813.50;5106500;28;20063;-62
2022/05/28 06:43:21;;;;;;;1.50;1.40;;;;;;;15.82;71.21;95818.13;5110775;28;20495;-62
2022/05/28 06:45:47;;;;;;;1.35;1.33;;;;;;;15.83;71.84;95819.78;5110440;28;20023;-62
2022/05/28 06:48:12;;;;;;;2.40;1.70;;;;;;;15.92;70.86;95810.81;5110346;28;20050;-62
2022/05/28 06:53:23;;;;;;;1.73;1.35;;;;;;;16.57;68.24;95802.63;5110697;28;20043;-63
2022/05/28 06:55:49;;;;;;;1.50;1.50;;;;;;;17.26;66.63;95801.78;5102385;28;20036;-63
2022/05/28 06:58:16;;;;;;;1.95;1.25;;;;;;;17.90;64.50;95796.91;5107092;28;20120;-64
2022/05/28 07:00:41;;;;;;;1.27;1.20;;;;;;;18.67;61.88;95788.56;5108603;28;20467;-63
2022/05/28 07:03:13;;;;;;;1.38;1.27;;;;;;;19.02;58.87;95789.53;5093220;28;20032;-65
2022/05/28 07:05:39;;;;;;;1.95;1.35;;;;;;;19.39;58.53;95784.06;5089695;28;20033;-64
2022/05/28 07:08:05;;;;;;;1.27;1.20;;;;;;;19.66;56.89;95794.06;5091666;28;20122;-64
2022/05/28 07:10:30;;;;;;;1.75;1.25;;;;;;;19.84;56.87;95782.88;5089093;28;20031;-64
2022/05/28 07:12:56;;;;;;;1.50;1.30;;;;;;;19.73;56.96;95790.41;5089943;28;20032;-63
2022/05/28 07:15:22;;;;;;;3.63;1.40;;;;;;;19.58;57.20;95779.84;5088139;28;20039;-63
2022/05/28 07:17:48;;;;;;;1.95;1.45;;;;;;;19.00;58.39;95778.22;5087599;28;20055;-64
2022/05/28 07:20:13;;;;;;;1.40;1.30;;;;;;;19.37;58.23;95785.25;5088271;28;20102;-62
2022/05/28 07:22:39;;;;;;;1.13;1.10;;;;;;;19.99;55.31;95780.09;5088085;28;20028;-63
2022/05/28 07:25:04;;;;;;;1.00;1.00;;;;;;;20.50;52.93;95780.66;5087915;28;20020;-65
2022/05/28 07:27:30;;;;;;;4.47;1.50;;;;;;;20.70;53.60;95778.03;5088009;28;20023;-63
2022/05/28 07:29:56;;;;;;;1.05;0.88;;;;;;;20.91;52.18;95778.91;5070214;28;20561;-64
2022/05/28 07:32:29;;;;;;;2.25;1.38;;;;;;;21.33;51.40;95774.13;5087765;28;20039;-65
2022/05/28 07:34:56;;;;;;;1.25;1.10;;;;;;;21.56;49.34;95775.56;5088615;28;20028;-64
2022/05/28 07:37:22;;;;;;;1.10;1.10;;;;;;;21.64;50.46;95767.28;5102916;28;20050;-65
2022/05/28 07:39:47;;;;;;;1.30;1.20;;;;;;;21.04;51.68;95769.03;5102720;28;20414;-65
2022/05/28 07:42:13;;;;;;;3.63;1.25;;;;;;;21.30;49.82;95767.34;5090332;28;20024;-66
2022/05/28 07:44:39;;;;;;;1.17;1.17;;;;;;;21.50;49.64;95765.66;5088060;28;20035;-66
2022/05/28 07:47:06;;;;;;;1.05;1.00;;;;;;;21.24;50.40;95770.03;5090579;28;20434;-64
2022/05/28 07:49:34;;;;;;;1.20;1.10;;;;;;;21.07;50.05;95767.75;5093653;28;20055;-63
2022/05/28 07:51:59;;;;;;;1.70;1.08;;;;;;;21.22;51.33;95769.41;5096018;28;20117;-63
2022/05/28 07:54:25;;;;;;;1.92;1.20;;;;;;;21.29;51.26;95760.34;5095512;28;20460;-63
2022/05/28 07:56:50;;;;;;;1.98;1.05;;;;;;;21.52;50.39;95767.09;5108852;28;20074;-63
2022/05/28 07:59:15;;;;;;;1.27;1.17;;;;;;;21.43;50.08;95765.66;5099380;28;20028;-64
2022/05/28 08:01:41;;;;;;;1.38;1.20;;;;;;;22.02;49.79;95757.69;5105429;28;20039;-63
2022/05/28 08:04:09;;;;;;;3.08;1.00;;;;;;;22.07;47.62;95762.44;5110796;28;20049;-63
2022/05/28 08:06:35;;;;;;;1.42;1.00;;;;;;;22.62;46.15;95767.31;5109756;28;20180;-63
2022/05/28 08:09:01;;;;;;;1.17;1.15;;;;;;;22.57;45.81;95769.84;5095386;28;20024;-64
2022/05/28 08:11:26;;;;;;;1.15;1.15;;;;;;;22.83;46.12;95768.81;5094290;28;20161;-62
2022/05/28 08:13:52;;;;;;;1.30;1.20;;;;;;;23.06;44.95;95767.41;5092522;28;20110;-62
2022/05/28 08:16:17;;;;;;;1.20;1.10;;;;;;;23.30;44.75;95762.28;5091307;28;20024;-63
2022/05/28 08:18:43;;;;;;;1.60;1.17;;;;;;;23.14;45.87;95764.47;5073996;28;20032;-63
2022/05/28 08:23:54;;;;;;;0.98;0.98;;;;;;;23.22;44.83;95763.38;5094537;28;20070;-64
2022/05/28 08:26:20;;;;;;;5.05;1.10;;;;;;;22.66;45.36;95759.66;5092360;28;20110;-64
2022/05/28 08:28:47;;;;;;;1.27;1.17;;;;;;;22.22;46.52;95760.31;5091803;28;20028;-64
2022/05/28 08:31:13;;;;;;;1.27;1.10;;;;;;;22.01;47.43;95762.25;5092487;28;20442;-65
2022/05/28 08:33:40;;;;;;;1.23;1.20;;;;;;;22.57;47.46;95748.38;5092403;28;20031;-64
2022/05/28 08:36:06;;;;;;;1.00;1.00;;;;;;;22.82;46.41;95755.63;5095654;28;20096;-64
2022/05/28 08:38:31;;;;;;;1.02;0.80;;;;;;;23.22;44.91;95755.31;5113239;28;20024;-65
2022/05/28 08:41:23;;;;;;;1.20;1.10;;;;;;;22.93;45.70;95752.22;5112592;28;20054;-65
2022/05/28 08:44:13;;;;;;;0.93;0.93;;;;;;;22.73;46.62;95757.75;5111978;28;20035;-64
2022/05/28 08:46:38;;;;;;;1.85;1.25;;;;;;;22.41;46.47;95761.22;5099608;28;20032;-65
2022/05/28 08:49:08;;;;;;;2.50;1.20;;;;;;;22.29;46.46;95761.09;5102521;28;20027;-63
2022/05/28 08:52:10;;;;;;;1.08;1.08;;;;;;;21.82;47.20;95763.97;5107445;28;20028;-65
2022/05/28 08:54:56;;;;;;;1.45;1.35;;;;;;;20.79;49.73;95752.72;5091141;28;20044;-65
2022/05/28 08:57:29;;;;;;;2.40;1.05;;;;;;;20.57;50.52;95752.91;5092021;28;20038;-64
2022/05/28 08:59:59;;;;;;;1.40;1.30;;;;;;;20.07;52.89;95749.69;5091824;28;20024;-64
2022/05/28 09:02:42;;;;;;;2.90;1.52;;;;;;;20.21;52.51;95751.38;5091333;28;20016;-64
2022/05/28 09:05:33;;;;;;;1.30;1.20;;;;;;;20.39;51.89;95744.63;5091760;28;20035;-64
2022/05/28 09:08:02;;;;;;;2.53;1.08;;;;;;;19.96;52.75;95753.78;5091682;28;20054;-63
2022/05/28 09:10:37;;;;;;;1.25;1.13;;;;;;;19.78;52.68;95743.56;5091699;28;20016;-63
2022/05/28 09:13:26;;;;;;;;;;;;;;;19.48;54.83;95734.00;5092451;28;20024;-64
2022/05/28 09:15:54;;;;;;;1.40;1.30;;;;;;;19.69;52.90;95729.59;5091781;28;19999;-63
2022/05/28 09:18:21;;;;;;;1.42;1.33;;;;;;;20.25;52.25;95733.94;5091450;28;20499;-65
2022/05/28 09:20:48;;;;;;;1.30;1.20;;;;;;;20.97;49.74;95737.94;5091563;28;20054;-64
2022/05/28 09:23:14;;;;;;;2.25;1.30;;;;;;;21.67;49.26;95729.38;5091392;28;20026;-64
2022/05/28 09:25:43;;;;;;;1.20;1.10;;;;;;;21.20;49.62;95717.94;5091412;28;20099;-64
2022/05/28 09:28:37;;;;;;;2.28;1.20;;;;;;;21.29;50.26;95724.72;5091796;28;20059;-64
2022/05/28 09:31:30;;;;;;;1.08;0.98;;;;;;;21.70;48.93;95720.94;5027891;28;20037;-64
2022/05/28 09:34:14;;;;;;;1.00;1.00;;;;;;;21.55;48.35;95721.16;5092556;28;20031;-63
2022/05/28 09:37:01;;;;;;;1.15;1.13;;;;;;;21.71;49.08;95714.53;5099333;28;20027;-64
2022/05/28 09:39:32;;;;;;;2.65;1.30;;;;;;;21.68;48.38;95706.91;5111566;28;20107;-64
2022/05/28 09:42:06;;;;;;;1.10;1.10;;;;;;;21.81;48.40;95702.56;5111569;28;20050;-64
2022/05/28 09:45:01;;;;;;;1.13;1.13;;;;;;;22.80;44.54;95699.47;5111485;28;20051;-64
2022/05/28 09:47:26;;;;;;;1.25;1.15;;;;;;;23.61;44.55;95701.44;5111702;28;20088;-63
2022/05/28 09:49:57;;;;;;;3.03;1.30;;;;;;;23.94;42.46;95696.69;5111383;28;20486;-64
2022/05/28 09:52:34;;;;;;;1.25;1.13;;;;;;;23.89;42.23;95692.81;5111538;28;20360;-64
2022/05/28 09:55:18;;;;;;;1.05;1.05;;;;;;;24.84;41.01;95691.50;5111296;28;20038;-64
2022/05/28 09:57:51;;;;;;;6.32;0.90;;;;;;;25.43;40.25;95690.69;5111123;28;20039;-64
2022/05/28 10:00:20;;;;;;;1.10;1.10;;;;;;;24.78;39.52;95685.19;5111409;28;20095;-64
2022/05/28 10:05:52;;;;;;;1.27;1.13;;;;;;;22.94;43.43;95677.91;5111528;28;20076;-64
2022/05/28 10:08:17;;;;;;;1.63;1.20;;;;;;;22.77;43.94;95675.78;5111032;28;20035;-64
2022/05/28 10:10:54;;;;;;;1.55;1.20;;;;;;;23.27;42.92;95671.41;5104451;28;20024;-64
2022/05/28 10:13:23;;;;;;;3.08;1.95;;;;;;;23.00;42.93;95672.50;5106982;28;20024;-64
2022/05/28 10:15:52;;;;;;;5.22;1.15;;;;;;;22.95;44.01;95671.50;5111226;28;20557;-63
2022/05/28 10:18:28;;;;;;;1.27;1.00;;;;;;;22.61;43.88;95663.75;5110815;28;20609;-64
2022/05/28 10:21:12;;;;;;;1.17;1.08;;;;;;;22.20;45.43;95671.19;5110923;28;20053;-63
2022/05/28 10:23:41;;;;;;;0.97;0.97;;;;;;;22.25;44.77;95666.03;5111133;28;20050;-63
2022/05/28 10:26:17;;;;;;;3.75;1.25;;;;;;;22.10;45.25;95660.16;5110907;28;20382;-63
2022/05/28 10:28:50;;;;;;;3.00;1.52;;;;;;;21.79;45.13;95661.75;5110851;28;20020;-63
2022/05/28 10:31:26;;;;;;;7.82;1.13;;;;;;;21.66;44.81;95659.94;5110735;28;20024;-63
2022/05/28 10:33:51;;;;;;;1.38;1.10;;;;;;;21.28;47.70;95645.44;5110525;28;20046;-63
2022/05/28 10:36:22;;;;;;;2.63;1.27;;;;;;;21.69;45.99;95646.94;5109210;28;20047;-63
2022/05/28 10:38:47;;;;;;;1.77;1.10;;;;;;;21.45;45.69;95651.16;5110667;28;20036;-63
2022/05/28 10:41:21;;;;;;;2.40;1.35;;;;;;;21.26;46.09;95642.13;5110843;28;20031;-63
2022/05/28 10:43:48;;;;;;;4.30;1.42;;;;;;;21.18;46.41;95641.34;5110566;28;20089;-63
2022/05/28 10:46:23;;;;;;;1.40;1.30;;;;;;;21.35;45.05;95635.53;5110579;28;20052;-63
2022/05/28 10:48:57;;;;;;;1.77;1.30;;;;;;;21.25;45.34;95632.47;5110476;28;20110;-63
2022/05/28 10:51:34;;;;;;;1.43;1.33;;;;;;;21.21;45.56;95632.06;5110377;28;20868;-63
2022/05/28 10:54:28;;;;;;;1.23;1.20;;;;;;;21.50;45.46;95629.06;5110406;28;20622;-63
2022/05/28 10:57:16;;;;;;;2.97;1.20;;;;;;;22.75;42.39;95626.88;5099263;28;20047;-63
2022/05/28 10:59:50;;;;;;;2.40;1.30;;;;;;;24.75;39.83;95610.28;5110379;28;20118;-63
2022/05/28 11:02:59;;;;;;;1.20;1.20;;;;;;;25.21;35.49;95617.75;5110811;28;20027;-63
2022/05/28 11:05:49;;;;;;;2.55;1.10;;;;;;;25.92;35.78;95612.16;5110222;28;20032;-63
2022/05/28 11:08:53;;;;;;;1.70;1.05;;;;;;;25.87;36.21;95603.97;5110406;28;20066;-64
2022/05/28 11:11:46;;;;;;;1.45;1.10;;;;;;;25.64;35.59;95603.00;5107398;28;20036;-64
2022/05/28 11:14:33;;;;;;;0.90;0.90;;;;;;;26.05;34.65;95605.66;5110441;28;20436;-64
2022/05/28 11:17:14;;;;;;;1.40;1.10;;;;;;;26.25;34.67;95601.69;5109874;28;20034;-64
2022/05/28 11:19:43;;;;;;;1.08;1.08;;;;;;;26.94;33.70;95595.22;5110181;28;20023;-63
2022/05/28 11:22:17;;;;;;;1.13;1.05;;;;;;;27.19;32.51;95587.72;5109921;28;20020;-63
2022/05/28 11:24:55;;;;;;;1.25;1.00;;;;;;;27.19;32.41;95585.84;5111334;28;20024;-63
2022/05/28 11:27:39;;;;;;;2.13;1.30;;;;;;;26.42;32.92;95580.16;5114425;28;20496;-64
2022/05/28 11:30:08;;;;;;;1.08;0.77;;;;;;;25.92;34.50;95570.91;5114168;28;20031;-64
2022/05/28 11:33:00;;;;;;;1.15;1.02;;;;;;;26.50;32.93;95582.41;5114394;28;20031;-63
2022/05/28 11:35:35;;;;;;;0.98;0.98;;;;;;;26.56;33.54;95573.31;5114047;28;20020;-63
2022/05/28 11:38:08;;;;;;;0.77;0.77;;;;;;;26.92;33.75;95559.56;5107275;28;20023;-63
2022/05/28 11:41:01;;;;;;;4.22;1.77;;;;;;;27.91;30.90;95564.25;5108259;28;20035;-64
2022/05/28 11:43:30;;;;;;;3.28;1.42;;;;;;;27.77;29.72;95557.63;5114089;28;20478;-64
2022/05/28 11:45:59;;;;;;;2.00;1.80;;;;;;;27.58;30.09;95553.34;5113779;28;20028;-64
2022/05/28 11:51:43;;;;;;;0.95;0.95;;;;;;;25.71;31.86;95557.84;5114092;28;20143;-64
2022/05/28 11:54:33;;;;;;;1.80;1.00;;;;;;;26.16;33.03;95541.91;5113772;28;20024;-63
2022/05/28 11:57:03;;;;;;;1.27;0.95;;;;;;;26.45;33.26;95552.66;5113692;28;20024;-64
2022/05/28 11:59:31;;;;;;;2.53;1.20;;;;;;;25.88;32.54;95546.28;5113559;28;20032;-64